Terminal Aerodrome Forecast
Issued by NWS Wilmington, NC

Home | Current Version | Previous Version | Text Only | Print | Product List | Glossary On
Versions: 1 2 3 4 5 6 7 8 9 10 11 12 13 14 15 16
000
FTUS42 KILM 201100
TAFFLO
TAF
KFLO 201137Z 2012/2112 02010G18KT P6SM VCSH SCT025 BKN040 OVC070
      TEMPO 2016/2020 02014G26KT BKN025
     FM210000 02012G18KT P6SM SCT025 BKN050=

USA.gov is the U.S. government's official web portal to all federal, state and local government web resources and services.